createdAt,value
2019-03-30T00:00:31.190Z,101245.84
2019-03-30T00:03:04.008Z,101239.56
2019-03-30T00:05:35.059Z,101232.50
2019-03-30T00:08:06.181Z,101230.28
2019-03-30T00:10:37.488Z,101228.33
2019-03-30T00:13:09.692Z,101230.04
2019-03-30T00:15:40.882Z,101223.64
2019-03-30T00:18:12.972Z,101216.13
2019-03-30T00:20:45.266Z,101220.20
2019-03-30T00:23:16.306Z,101227.53
2019-03-30T00:25:47.577Z,101231.91
2019-03-30T00:28:18.883Z,101231.95
2019-03-30T00:30:50.053Z,101241.27
2019-03-30T00:33:21.130Z,101233.91
2019-03-30T00:35:52.249Z,101242.94
2019-03-30T00:38:23.251Z,101241.23
2019-03-30T00:40:54.326Z,101244.57
2019-03-30T00:43:25.448Z,101240.33
2019-03-30T00:45:56.550Z,101231.84
2019-03-30T00:48:27.794Z,101234.49
2019-03-30T00:50:59.167Z,101231.98
2019-03-30T00:53:30.259Z,101226.63
2019-03-30T00:56:01.311Z,101221.94
2019-03-30T00:58:32.355Z,101221.62
2019-03-30T01:01:03.667Z,101230.03
2019-03-30T01:03:35.837Z,101224.35
2019-03-30T01:06:07.008Z,101227.33
2019-03-30T01:08:38.015Z,101220.37
2019-03-30T01:11:09.148Z,101223.98
2019-03-30T01:13:40.263Z,101216.01
2019-03-30T01:16:11.396Z,101212.95
2019-03-30T01:18:42.410Z,101211.13
2019-03-30T01:21:13.836Z,101205.60
2019-03-30T01:23:45.064Z,101206.87
2019-03-30T01:26:16.378Z,101211.48
2019-03-30T01:28:47.557Z,101209.79
2019-03-30T01:31:18.789Z,101207.83
2019-03-30T01:33:50.067Z,101210.41
2019-03-30T01:36:21.330Z,101211.65
2019-03-30T01:38:54.394Z,101209.13
2019-03-30T01:41:30.041Z,101204.92
2019-03-30T01:44:01.714Z,101205.66
2019-03-30T01:46:32.934Z,101206.30
2019-03-30T01:49:04.072Z,101207.38
2019-03-30T01:51:35.498Z,101207.16
2019-03-30T01:54:06.638Z,101204.61
2019-03-30T01:56:37.837Z,101198.88
2019-03-30T01:59:08.919Z,101195.45
2019-03-30T02:01:40.089Z,101188.94
2019-03-30T02:04:11.127Z,101191.93
2019-03-30T02:06:42.298Z,101192.31
2019-03-30T02:09:13.414Z,101187.26
2019-03-30T02:11:44.589Z,101190.96
2019-03-30T02:14:17.159Z,101190.14
2019-03-30T02:16:48.288Z,101186.48
2019-03-30T02:19:19.402Z,101189.36
2019-03-30T02:21:51.799Z,101195.86
2019-03-30T02:24:22.928Z,101194.59
2019-03-30T02:26:54.335Z,101183.64
2019-03-30T02:29:25.489Z,101189.05
2019-03-30T02:31:56.646Z,101183.17
2019-03-30T02:34:27.686Z,101185.52
2019-03-30T02:36:58.759Z,101185.52
2019-03-30T02:39:29.874Z,101186.26
2019-03-30T02:42:01.038Z,101185.39
2019-03-30T02:44:32.455Z,101189.58
2019-03-30T02:47:03.643Z,101187.13
2019-03-30T02:49:34.766Z,101195.25
2019-03-30T02:52:05.980Z,101192.93
2019-03-30T02:54:37.153Z,101193.28
2019-03-30T02:57:08.223Z,101194.28
2019-03-30T02:59:39.391Z,101199.21
2019-03-30T03:02:10.515Z,101193.93
2019-03-30T03:04:41.612Z,101193.31
2019-03-30T03:07:12.834Z,101183.38
2019-03-30T03:09:43.980Z,101194.31
2019-03-30T03:12:15.066Z,101192.61
2019-03-30T03:14:46.287Z,101181.53
2019-03-30T03:17:17.435Z,101190.29
2019-03-30T03:19:48.568Z,101195.69
2019-03-30T03:22:19.662Z,101192.34
2019-03-30T03:24:50.741Z,101189.16
2019-03-30T03:27:21.797Z,101190.53
2019-03-30T03:29:52.830Z,101189.69
2019-03-30T03:32:24.154Z,101191.91
2019-03-30T03:34:55.311Z,101186.63
2019-03-30T03:37:43.394Z,101186.52
2019-03-30T03:39:59.807Z,101192.65
2019-03-30T03:42:30.963Z,101188.47
2019-03-30T03:45:02.169Z,101190.95
2019-03-30T03:47:33.395Z,101190.80
2019-03-30T03:50:05.968Z,101194.86
2019-03-30T03:52:37.162Z,101189.94
2019-03-30T03:55:08.246Z,101201.38
2019-03-30T03:57:40.953Z,101198.05
2019-03-30T04:00:12.089Z,101203.71
2019-03-30T04:02:43.853Z,101202.67
2019-03-30T04:05:15.181Z,101199.95
2019-03-30T04:07:46.253Z,101208.93
2019-03-30T04:10:17.524Z,101204.01
2019-03-30T04:12:48.800Z,101208.21
2019-03-30T04:15:25.657Z,101202.84
2019-03-30T04:17:56.828Z,101204.97
2019-03-30T04:20:27.877Z,101217.70
2019-03-30T04:22:58.959Z,101217.92
2019-03-30T04:25:29.999Z,101222.41
2019-03-30T04:28:01.319Z,101224.17
2019-03-30T04:30:32.973Z,101230.17
2019-03-30T04:33:04.011Z,101234.97
2019-03-30T04:35:35.028Z,101228.37
2019-03-30T04:38:06.164Z,101236.84
2019-03-30T04:40:37.985Z,101235.60
2019-03-30T04:43:09.187Z,101240.78
2019-03-30T04:45:40.333Z,101236.68
2019-03-30T04:48:11.583Z,101245.27
2019-03-30T04:50:42.640Z,101243.38
2019-03-30T04:53:13.806Z,101253.65
2019-03-30T04:55:44.897Z,101249.65
2019-03-30T04:58:16.063Z,101257.00
2019-03-30T05:00:47.260Z,101254.78
2019-03-30T05:03:18.411Z,101266.16
2019-03-30T05:05:49.494Z,101266.61
2019-03-30T05:08:20.659Z,101266.09
2019-03-30T05:10:51.748Z,101265.23
2019-03-30T05:13:22.909Z,101263.28
2019-03-30T05:15:54.452Z,101266.06
2019-03-30T05:18:25.617Z,101266.06
2019-03-30T05:20:57.979Z,101271.41
2019-03-30T05:23:29.256Z,101268.88
2019-03-30T05:26:00.383Z,101275.23
2019-03-30T05:28:31.529Z,101269.45
2019-03-30T05:31:02.706Z,101268.98
2019-03-30T05:33:33.939Z,101265.34
2019-03-30T05:36:05.031Z,101264.48
2019-03-30T05:38:36.169Z,101259.41
2019-03-30T05:41:07.310Z,101268.09
2019-03-30T05:43:38.470Z,101264.81
2019-03-30T05:46:09.535Z,101271.49
2019-03-30T05:48:40.679Z,101273.81
2019-03-30T05:51:12.915Z,101278.64
2019-03-30T05:53:44.051Z,101281.29
2019-03-30T05:56:15.354Z,101276.17
2019-03-30T05:58:46.607Z,101279.78
2019-03-30T06:01:17.867Z,101275.71
2019-03-30T06:03:48.984Z,101276.72
2019-03-30T06:06:20.003Z,101283.60
2019-03-30T06:08:51.147Z,101280.20
2019-03-30T06:11:23.368Z,101272.02
2019-03-30T06:13:54.638Z,101269.66
2019-03-30T06:16:25.841Z,101269.30
2019-03-30T06:18:57.066Z,101280.19
2019-03-30T06:21:28.286Z,101274.17
2019-03-30T06:23:59.597Z,101271.43
2019-03-30T06:26:30.852Z,101266.44
2019-03-30T06:29:02.227Z,101260.95
2019-03-30T06:31:33.537Z,101259.45
2019-03-30T06:34:04.743Z,101263.30
2019-03-30T06:36:36.111Z,101260.31
2019-03-30T06:39:07.255Z,101260.07
2019-03-30T06:41:38.428Z,101260.97
2019-03-30T06:44:09.505Z,101261.54
2019-03-30T06:46:40.683Z,101257.98
2019-03-30T06:49:11.802Z,101261.84
2019-03-30T06:51:42.812Z,101260.61
2019-03-30T06:54:14.942Z,101250.98
2019-03-30T06:56:47.076Z,101250.98
2019-03-30T06:59:19.321Z,101254.44
2019-03-30T07:01:50.478Z,101254.58
2019-03-30T07:04:21.599Z,101254.33
2019-03-30T07:06:52.757Z,101251.71
2019-03-30T07:09:23.979Z,101244.59
2019-03-30T07:11:55.237Z,101248.02
2019-03-30T07:14:26.479Z,101249.48
2019-03-30T07:16:57.766Z,101251.39
2019-03-30T07:19:28.936Z,101244.09
2019-03-30T07:21:59.947Z,101248.08
2019-03-30T07:24:31.154Z,101254.29
2019-03-30T07:27:02.335Z,101249.70
2019-03-30T07:29:33.411Z,101243.83
2019-03-30T07:32:04.619Z,101235.17
2019-03-30T07:34:35.845Z,101241.53
2019-03-30T07:37:07.080Z,101238.00
2019-03-30T07:39:38.266Z,101241.90
2019-03-30T07:42:09.408Z,101242.20
2019-03-30T07:44:41.595Z,101246.63
2019-03-30T07:47:13.650Z,101242.03
2019-03-30T07:49:45.080Z,101239.67
2019-03-30T07:52:16.370Z,101237.70
2019-03-30T07:54:47.570Z,101236.53
2019-03-30T07:57:18.884Z,101243.58
2019-03-30T07:59:50.990Z,101243.09
2019-03-30T08:02:22.166Z,101237.07
2019-03-30T08:04:53.270Z,101237.59
2019-03-30T08:07:24.414Z,101229.25
2019-03-30T08:09:55.544Z,101230.27
2019-03-30T08:12:26.820Z,101233.53
2019-03-30T08:14:58.045Z,101233.70
2019-03-30T08:17:29.441Z,101235.09
2019-03-30T08:20:00.946Z,101233.19
2019-03-30T08:22:35.045Z,101245.44
2019-03-30T08:25:06.863Z,101243.88
2019-03-30T08:27:39.053Z,101246.66
2019-03-30T08:30:10.301Z,101255.59
2019-03-30T08:32:41.821Z,101260.06
2019-03-30T08:35:14.006Z,101268.23
2019-03-30T08:37:46.760Z,101267.25
2019-03-30T08:40:18.083Z,101273.02
2019-03-30T08:42:52.217Z,101270.30
2019-03-30T08:45:23.450Z,101270.30
2019-03-30T08:47:55.297Z,101276.44
2019-03-30T08:50:30.048Z,101273.38
2019-03-30T08:53:04.571Z,101284.17
2019-03-30T08:55:36.189Z,101280.39
2019-03-30T08:58:10.196Z,101288.11
2019-03-30T09:00:42.306Z,101279.88
2019-03-30T09:03:14.958Z,101281.45
2019-03-30T09:05:47.735Z,101281.78
2019-03-30T09:08:18.878Z,101280.03
2019-03-30T09:10:52.888Z,101281.55
2019-03-30T09:13:24.689Z,101275.77
2019-03-30T09:15:59.008Z,101279.49
2019-03-30T09:18:31.035Z,101277.39
2019-03-30T09:21:04.994Z,101279.30
2019-03-30T09:23:39.073Z,101278.08
2019-03-30T09:26:16.504Z,101278.94
2019-03-30T09:28:51.771Z,101277.13
2019-03-30T09:31:20.602Z,101264.81
2019-03-30T09:33:53.764Z,101271.98
2019-03-30T09:36:26.032Z,101272.30
2019-03-30T09:38:57.237Z,101272.12
2019-03-30T09:41:29.441Z,101267.67
2019-03-30T09:44:02.212Z,101262.55
2019-03-30T09:46:33.392Z,101260.15
2019-03-30T09:49:05.263Z,101266.48
2019-03-30T09:51:39.399Z,101271.25
2019-03-30T09:54:23.071Z,101271.10
2019-03-30T09:56:43.366Z,101265.92
2019-03-30T09:59:14.532Z,101268.74
2019-03-30T10:01:45.768Z,101267.37
2019-03-30T10:04:16.903Z,101271.08
2019-03-30T10:06:48.151Z,101277.09
2019-03-30T10:09:19.301Z,101275.88
2019-03-30T10:11:50.492Z,101273.52
2019-03-30T10:14:21.682Z,101274.66
2019-03-30T10:16:52.887Z,101279.61
2019-03-30T10:19:27.880Z,101278.78
2019-03-30T10:21:56.842Z,101281.02
2019-03-30T10:24:38.115Z,101281.23
2019-03-30T10:27:00.701Z,101294.59
2019-03-30T10:29:31.791Z,101290.09
2019-03-30T10:32:03.844Z,101286.36
2019-03-30T10:34:34.939Z,101287.54
2019-03-30T10:37:06.154Z,101291.64
2019-03-30T10:39:37.295Z,101289.72
2019-03-30T10:42:08.372Z,101291.78
2019-03-30T10:44:40.607Z,101290.77
2019-03-30T10:47:11.917Z,101288.42
2019-03-30T10:49:43.162Z,101283.61
2019-03-30T10:52:14.391Z,101277.77
2019-03-30T10:54:52.527Z,101283.35
2019-03-30T10:57:18.523Z,101278.52
2019-03-30T10:59:49.742Z,101276.53
2019-03-30T11:02:21.052Z,101276.65
2019-03-30T11:04:53.163Z,101278.56
2019-03-30T11:07:24.308Z,101265.89
2019-03-30T11:09:55.434Z,101271.53
2019-03-30T11:12:26.537Z,101270.16
2019-03-30T11:14:57.846Z,101275.48
2019-03-30T11:17:29.226Z,101274.30
2019-03-30T11:20:00.391Z,101265.29
2019-03-30T11:22:31.573Z,101274.34
2019-03-30T11:25:07.732Z,101272.83
2019-03-30T11:27:36.937Z,101275.81
2019-03-30T11:30:08.258Z,101263.95
2019-03-30T11:32:39.407Z,101273.37
2019-03-30T11:35:10.548Z,101270.81
2019-03-30T11:37:41.779Z,101267.20
2019-03-30T11:40:12.922Z,101273.80
2019-03-30T11:42:44.172Z,101273.98
2019-03-30T11:45:15.297Z,101266.44
2019-03-30T11:47:46.453Z,101265.39
2019-03-30T11:50:17.792Z,101262.74
2019-03-30T11:52:48.994Z,101260.95
2019-03-30T11:55:22.088Z,101258.80
2019-03-30T11:57:53.081Z,101259.59
2019-03-30T12:00:25.429Z,101265.14
2019-03-30T12:02:56.776Z,101260.27
2019-03-30T12:05:27.973Z,101258.84
2019-03-30T12:07:59.271Z,101250.80
2019-03-30T12:10:30.412Z,101255.24
2019-03-30T12:13:01.576Z,101251.25
2019-03-30T12:15:33.789Z,101256.27
2019-03-30T12:18:04.854Z,101254.88
2019-03-30T12:20:36.047Z,101250.21
2019-03-30T12:23:08.526Z,101251.58
2019-03-30T12:25:39.658Z,101243.98
2019-03-30T12:28:10.726Z,101244.83
2019-03-30T12:30:42.840Z,101242.83
2019-03-30T12:33:14.983Z,101237.45
2019-03-30T12:35:46.024Z,101237.15
2019-03-30T12:38:17.193Z,101246.91
2019-03-30T12:40:48.327Z,101233.55
2019-03-30T12:43:19.436Z,101238.03
2019-03-30T12:45:50.533Z,101235.41
2019-03-30T12:48:22.969Z,101236.20
2019-03-30T12:50:54.242Z,101228.55
2019-03-30T12:53:25.462Z,101234.70
2019-03-30T12:55:56.646Z,101227.73
2019-03-30T12:58:27.879Z,101230.41
2019-03-30T13:01:00.060Z,101229.29
2019-03-30T13:03:33.210Z,101224.98
2019-03-30T13:06:04.394Z,101226.98
2019-03-30T13:08:35.681Z,101218.12
2019-03-30T13:11:06.846Z,101219.80
2019-03-30T13:13:38.138Z,101215.47
2019-03-30T13:16:09.347Z,101203.98
2019-03-30T13:18:40.389Z,101218.22
2019-03-30T13:21:11.813Z,101213.77
2019-03-30T13:23:42.926Z,101212.70
2019-03-30T13:26:14.002Z,101215.32
2019-03-30T13:28:45.083Z,101220.79
2019-03-30T13:31:16.336Z,101217.10
2019-03-30T13:33:47.661Z,101208.83
2019-03-30T13:36:26.656Z,101210.19
2019-03-30T13:38:59.424Z,101220.44
2019-03-30T13:41:30.797Z,101223.70
2019-03-30T13:44:06.989Z,101209.11
2019-03-30T13:46:39.128Z,101209.75
2019-03-30T13:49:10.543Z,101213.95
2019-03-30T13:51:41.727Z,101211.66
2019-03-30T13:54:12.813Z,101203.53
2019-03-30T13:56:43.915Z,101210.23
2019-03-30T13:59:15.156Z,101209.66
2019-03-30T14:01:46.226Z,101214.33
2019-03-30T14:04:17.528Z,101213.23
2019-03-30T14:06:48.748Z,101223.42
2019-03-30T14:09:21.928Z,101220.00
2019-03-30T14:11:52.902Z,101217.83
2019-03-30T14:14:24.062Z,101215.51
2019-03-30T14:16:55.203Z,101222.75
2019-03-30T14:19:26.353Z,101213.57
2019-03-30T14:21:57.495Z,101209.02
2019-03-30T14:24:28.788Z,101211.84
2019-03-30T14:27:02.814Z,101213.14
2019-03-30T14:29:34.053Z,101210.27
2019-03-30T14:32:05.313Z,101212.52
2019-03-30T14:34:38.329Z,101208.83
2019-03-30T14:37:09.454Z,101219.50
2019-03-30T14:39:40.823Z,101214.10
2019-03-30T14:42:12.010Z,101220.69
2019-03-30T14:44:44.677Z,101221.56
2019-03-30T14:47:17.482Z,101226.23
2019-03-30T14:49:49.961Z,101217.63
2019-03-30T14:52:21.227Z,101217.94
2019-03-30T14:55:14.553Z,101224.11
2019-03-30T14:57:45.878Z,101220.81
2019-03-30T15:00:17.439Z,101226.50
2019-03-30T15:02:51.753Z,101221.19
2019-03-30T15:05:24.569Z,101223.23
2019-03-30T15:07:55.737Z,101223.20
2019-03-30T15:10:26.929Z,101221.13
2019-03-30T15:12:58.142Z,101225.61
2019-03-30T15:15:29.358Z,101224.50
2019-03-30T15:18:00.588Z,101226.42
2019-03-30T15:20:34.741Z,101229.86
2019-03-30T15:23:05.961Z,101233.52
2019-03-30T15:25:44.067Z,101239.84
2019-03-30T15:28:15.180Z,101235.59
2019-03-30T15:30:46.433Z,101232.34
2019-03-30T15:33:18.290Z,101232.86
2019-03-30T15:35:49.568Z,101234.28
2019-03-30T15:38:23.491Z,101236.48
2019-03-30T15:40:55.814Z,101233.28
2019-03-30T15:43:38.289Z,101239.34
2019-03-30T15:46:03.433Z,101240.56
2019-03-30T15:48:34.705Z,101240.25
2019-03-30T15:51:07.098Z,101240.16
2019-03-30T15:53:38.505Z,101244.97
2019-03-30T15:56:11.366Z,101242.59
2019-03-30T15:58:44.216Z,101243.49
2019-03-30T16:01:15.484Z,101247.93
2019-03-30T16:03:46.787Z,101252.59
2019-03-30T16:06:20.877Z,101253.13
2019-03-30T16:08:53.484Z,101254.86
2019-03-30T16:11:29.167Z,101254.58
2019-03-30T16:14:02.017Z,101253.38
2019-03-30T16:16:34.670Z,101253.41
2019-03-30T16:19:05.891Z,101257.37
2019-03-30T16:21:38.797Z,101258.56
2019-03-30T16:24:11.684Z,101264.73
2019-03-30T16:26:43.203Z,101267.00
2019-03-30T16:29:14.523Z,101264.42
2019-03-30T16:31:46.139Z,101273.69
2019-03-30T16:34:20.313Z,101267.87
2019-03-30T16:36:54.714Z,101273.17
2019-03-30T16:39:28.949Z,101271.77
2019-03-30T16:42:02.988Z,101273.16
2019-03-30T16:44:47.845Z,101280.02
2019-03-30T16:47:18.783Z,101284.14
2019-03-30T16:49:51.595Z,101285.00
2019-03-30T16:52:25.888Z,101283.66
2019-03-30T16:55:01.612Z,101288.61
2019-03-30T16:57:42.980Z,101296.13
2019-03-30T17:00:13.449Z,101296.48
2019-03-30T17:02:44.790Z,101298.37
2019-03-30T17:05:17.984Z,101302.30
2019-03-30T17:07:50.287Z,101300.26
2019-03-30T17:10:23.993Z,101299.55
2019-03-30T17:12:55.254Z,101296.31
2019-03-30T17:15:26.284Z,101301.45
2019-03-30T17:17:58.153Z,101296.66
2019-03-30T17:20:31.074Z,101299.39
2019-03-30T17:23:04.078Z,101305.02
2019-03-30T17:25:36.560Z,101307.43
2019-03-30T17:28:09.447Z,101310.31
2019-03-30T17:30:40.799Z,101305.04
2019-03-30T17:33:16.889Z,101311.67
2019-03-30T17:35:50.630Z,101316.78
2019-03-30T17:38:24.743Z,101317.83
2019-03-30T17:41:00.836Z,101314.56
2019-03-30T17:43:36.020Z,101316.80
2019-03-30T17:46:08.020Z,101324.28
2019-03-30T17:48:39.274Z,101329.22
2019-03-30T17:51:11.383Z,101333.16
2019-03-30T17:53:42.661Z,101331.43
2019-03-30T17:56:13.697Z,101329.53
2019-03-30T17:58:45.020Z,101329.86
2019-03-30T18:01:19.591Z,101332.23
2019-03-30T18:03:52.448Z,101332.40
2019-03-30T18:06:23.863Z,101338.50
2019-03-30T18:08:57.296Z,101337.92
2019-03-30T18:11:31.478Z,101340.09
2019-03-30T18:14:06.678Z,101342.28
2019-03-30T18:16:39.551Z,101343.31
2019-03-30T18:19:14.363Z,101341.78
2019-03-30T18:21:45.611Z,101340.20
2019-03-30T18:24:18.493Z,101337.59
2019-03-30T18:26:52.693Z,101345.25
2019-03-30T18:29:24.032Z,101338.41
2019-03-30T18:31:57.037Z,101342.14
2019-03-30T18:34:28.168Z,101344.86
2019-03-30T18:36:59.414Z,101342.67
2019-03-30T18:39:33.396Z,101343.67
2019-03-30T18:42:04.595Z,101347.93
2019-03-30T18:44:37.355Z,101352.23
2019-03-30T18:47:08.572Z,101356.45
2019-03-30T18:49:42.523Z,101354.36
2019-03-30T18:52:12.760Z,101353.66
2019-03-30T18:54:44.206Z,101360.77
2019-03-30T18:57:15.413Z,101364.43
2019-03-30T18:59:46.507Z,101359.56
2019-03-30T19:02:19.399Z,101362.36
2019-03-30T19:04:50.805Z,101357.30
2019-03-30T19:07:21.926Z,101352.98
2019-03-30T19:09:53.089Z,101358.85
2019-03-30T19:12:24.247Z,101362.48
2019-03-30T19:14:55.383Z,101364.45
2019-03-30T19:17:27.265Z,101363.56
2019-03-30T19:19:58.510Z,101365.19
2019-03-30T19:22:29.719Z,101362.94
2019-03-30T19:25:01.087Z,101368.13
2019-03-30T19:27:32.224Z,101368.19
2019-03-30T19:30:05.067Z,101370.50
2019-03-30T19:32:36.244Z,101364.89
2019-03-30T19:35:07.572Z,101374.16
2019-03-30T19:37:38.699Z,101373.70
2019-03-30T19:40:09.751Z,101379.95
2019-03-30T19:42:40.957Z,101377.39
2019-03-30T19:45:12.157Z,101382.28
2019-03-30T19:47:44.030Z,101378.39
2019-03-30T19:50:15.256Z,101372.63
2019-03-30T19:52:46.432Z,101380.03
2019-03-30T19:55:17.570Z,101380.05
2019-03-30T19:57:48.760Z,101379.80
2019-03-30T20:00:20.002Z,101379.80
2019-03-30T20:02:51.374Z,101383.39
2019-03-30T20:05:22.764Z,101390.92
2019-03-30T20:07:54.862Z,101389.41
2019-03-30T20:10:26.031Z,101386.41
2019-03-30T20:12:57.227Z,101379.77
2019-03-30T20:15:28.513Z,101385.31
2019-03-30T20:17:59.685Z,101381.61
2019-03-30T20:20:30.898Z,101386.81
2019-03-30T20:23:02.092Z,101389.39
2019-03-30T20:25:33.231Z,101386.47
2019-03-30T20:28:04.354Z,101385.41
2019-03-30T20:30:35.608Z,101390.49
2019-03-30T20:33:06.782Z,101387.96
2019-03-30T20:35:38.037Z,101391.81
2019-03-30T20:38:09.145Z,101391.59
2019-03-30T20:40:40.283Z,101391.95
2019-03-30T20:43:11.559Z,101392.52
2019-03-30T20:45:42.786Z,101390.52
2019-03-30T20:48:13.953Z,101388.66
2019-03-30T20:50:45.068Z,101385.55
2019-03-30T20:53:16.472Z,101385.41
2019-03-30T20:55:47.549Z,101385.73
2019-03-30T20:58:18.860Z,101388.06
2019-03-30T21:00:50.124Z,101390.19
2019-03-30T21:03:21.219Z,101392.31
2019-03-30T21:05:52.323Z,101388.70
2019-03-30T21:08:23.504Z,101387.52
2019-03-30T21:10:54.621Z,101384.59
2019-03-30T21:13:25.787Z,101384.02
2019-03-30T21:15:57.094Z,101380.98
2019-03-30T21:18:28.395Z,101384.00
2019-03-30T21:20:59.794Z,101386.68
2019-03-30T21:23:31.004Z,101381.75
2019-03-30T21:26:02.248Z,101387.18
2019-03-30T21:28:33.602Z,101392.05
2019-03-30T21:31:04.660Z,101387.14
2019-03-30T21:33:35.811Z,101394.21
2019-03-30T21:36:06.916Z,101390.80
2019-03-30T21:38:38.037Z,101389.23
2019-03-30T21:41:09.159Z,101395.98
2019-03-30T21:43:40.449Z,101390.34
2019-03-30T21:46:11.660Z,101391.52
2019-03-30T21:48:42.921Z,101392.19
2019-03-30T21:51:14.120Z,101392.47
2019-03-30T21:53:45.322Z,101391.73
2019-03-30T21:56:16.356Z,101394.72
2019-03-30T21:58:47.394Z,101392.59
2019-03-30T22:01:18.639Z,101392.77
2019-03-30T22:03:49.727Z,101393.44
2019-03-30T22:06:20.898Z,101395.97
2019-03-30T22:08:52.294Z,101393.44
2019-03-30T22:11:24.308Z,101389.09
2019-03-30T22:13:55.456Z,101393.45
2019-03-30T22:16:26.564Z,101393.09
2019-03-30T22:18:57.579Z,101387.41
2019-03-30T22:21:28.697Z,101398.34
2019-03-30T22:23:59.786Z,101385.89
2019-03-30T22:26:30.869Z,101390.42
2019-03-30T22:29:01.959Z,101385.13
2019-03-30T22:31:33.152Z,101375.45
2019-03-30T22:34:04.259Z,101377.28
2019-03-30T22:36:35.429Z,101380.02
2019-03-30T22:39:06.754Z,101380.35
2019-03-30T22:41:38.962Z,101378.91
2019-03-30T22:44:10.098Z,101381.70
2019-03-30T22:46:41.323Z,101380.61
2019-03-30T22:49:13.062Z,101384.30
2019-03-30T22:51:47.627Z,101376.42
2019-03-30T22:54:28.691Z,101380.67
2019-03-30T22:56:55.849Z,101378.78
2019-03-30T22:59:26.901Z,101375.60
2019-03-30T23:01:58.069Z,101368.20
2019-03-30T23:04:29.203Z,101372.36
2019-03-30T23:07:00.326Z,101368.77
2019-03-30T23:09:32.564Z,101373.36
2019-03-30T23:12:03.789Z,101371.54
2019-03-30T23:14:34.978Z,101370.80
2019-03-30T23:17:06.043Z,101369.92
2019-03-30T23:19:37.154Z,101375.81
2019-03-30T23:22:08.204Z,101378.92
2019-03-30T23:24:39.371Z,101378.84
2019-03-30T23:27:10.504Z,101376.17
2019-03-30T23:29:41.629Z,101372.16
2019-03-30T23:32:12.715Z,101371.20
2019-03-30T23:34:43.835Z,101368.45
2019-03-30T23:37:15.126Z,101374.12
2019-03-30T23:39:46.288Z,101375.74
2019-03-30T23:42:17.367Z,101379.70
2019-03-30T23:44:48.476Z,101379.97
2019-03-30T23:47:19.671Z,101374.70
2019-03-30T23:49:50.791Z,101379.84
2019-03-30T23:52:21.833Z,101376.39
2019-03-30T23:54:53.047Z,101379.70
2019-03-30T23:57:24.144Z,101381.25
2019-03-30T23:59:55.196Z,101381.37
